createdAt,value
2018-05-21T00:00:57.332Z,84.90
2018-05-21T00:03:26.389Z,85.80
2018-05-21T00:05:54.668Z,85.80
2018-05-21T00:08:23.018Z,85.70
2018-05-21T00:10:51.301Z,85.70
2018-05-21T00:13:19.589Z,86.20
2018-05-21T00:15:47.902Z,86.30
2018-05-21T00:18:16.950Z,87.10
2018-05-21T00:20:45.266Z,87.00
2018-05-21T00:23:13.546Z,87.40
2018-05-21T00:25:41.824Z,87.70
2018-05-21T00:28:10.145Z,88.00
2018-05-21T00:30:38.433Z,87.90
2018-05-21T00:33:06.716Z,87.60
2018-05-21T00:35:35.029Z,87.30
2018-05-21T00:38:04.078Z,90.00
2018-05-21T00:40:32.362Z,90.00
2018-05-21T00:43:00.678Z,90.00
2018-05-21T00:45:28.958Z,85.70
2018-05-21T00:47:57.237Z,86.10
2018-05-21T00:50:25.717Z,85.00
2018-05-21T00:52:53.965Z,85.40
2018-05-21T00:55:34.037Z,85.70
2018-05-21T00:58:03.121Z,85.30
2018-05-21T01:00:31.432Z,85.20
2018-05-21T01:03:00.489Z,84.70
2018-05-21T01:05:28.765Z,84.60
2018-05-21T01:07:57.312Z,83.50
2018-05-21T01:10:25.598Z,83.20
2018-05-21T01:12:53.884Z,83.90
2018-05-21T01:15:22.208Z,84.00
2018-05-21T01:17:51.276Z,83.20
2018-05-21T01:20:19.558Z,83.20
2018-05-21T01:22:47.874Z,83.30
2018-05-21T01:25:16.969Z,84.80
2018-05-21T01:27:46.053Z,84.70
2018-05-21T01:30:14.377Z,84.60
2018-05-21T01:32:42.697Z,85.60
2018-05-21T01:35:10.985Z,86.40
2018-05-21T01:37:39.310Z,86.40
2018-05-21T01:40:07.594Z,86.80
2018-05-21T01:42:35.911Z,87.30
2018-05-21T01:45:04.193Z,87.30
2018-05-21T01:47:32.481Z,86.70
2018-05-21T01:50:00.794Z,86.10
2018-05-21T01:52:29.171Z,85.50
2018-05-21T01:54:57.565Z,85.60
2018-05-21T01:57:25.848Z,85.80
2018-05-21T01:59:54.237Z,84.90
2018-05-21T02:02:22.721Z,84.70
2018-05-21T02:04:51.025Z,84.90
2018-05-21T02:07:19.312Z,85.30
2018-05-21T02:09:47.629Z,85.90
2018-05-21T02:12:16.672Z,85.60
2018-05-21T02:14:44.961Z,85.60
2018-05-21T02:17:14.176Z,85.70
2018-05-21T02:19:42.457Z,85.40
2018-05-21T02:22:10.781Z,85.20
2018-05-21T02:24:39.077Z,83.90
2018-05-21T02:27:07.503Z,84.90
2018-05-21T02:29:35.956Z,85.20
2018-05-21T02:32:04.243Z,85.40
2018-05-21T02:34:32.522Z,85.40
2018-05-21T02:37:00.832Z,85.70
2018-05-21T02:39:29.119Z,86.10
2018-05-21T02:41:57.819Z,86.40
2018-05-21T02:44:26.102Z,86.30
2018-05-21T02:46:54.381Z,86.10
2018-05-21T02:49:22.993Z,86.30
2018-05-21T02:51:51.274Z,86.40
2018-05-21T02:54:19.557Z,85.50
2018-05-21T02:56:48.177Z,83.90
2018-05-21T02:59:16.458Z,82.90
2018-05-21T03:01:44.743Z,82.50
2018-05-21T03:04:13.225Z,81.80
2018-05-21T03:06:41.529Z,80.00
2018-05-21T03:09:09.810Z,79.70
2018-05-21T03:11:38.205Z,80.10
2018-05-21T03:14:06.602Z,80.30
2018-05-21T03:16:34.877Z,80.50
2018-05-21T03:19:03.183Z,80.50
2018-05-21T03:21:31.669Z,81.00
2018-05-21T03:23:59.951Z,81.20
2018-05-21T03:26:28.346Z,81.00
2018-05-21T03:28:56.625Z,81.30
2018-05-21T03:31:24.910Z,81.30
2018-05-21T03:33:53.225Z,80.70
2018-05-21T03:36:21.545Z,80.90
2018-05-21T03:38:50.715Z,81.20
2018-05-21T03:41:18.993Z,81.20
2018-05-21T03:43:47.273Z,80.50
2018-05-21T03:46:15.601Z,77.10
2018-05-21T03:48:44.701Z,72.60
2018-05-21T03:51:13.085Z,72.40
2018-05-21T03:53:41.405Z,70.60
2018-05-21T03:56:10.881Z,69.50
2018-05-21T03:58:51.106Z,69.50
2018-05-21T04:01:31.175Z,70.50
2018-05-21T04:03:59.520Z,71.60
2018-05-21T04:06:27.805Z,72.40
2018-05-21T04:08:56.292Z,72.50
2018-05-21T04:11:24.586Z,72.40
2018-05-21T04:13:52.876Z,72.50
2018-05-21T04:16:21.188Z,72.20
2018-05-21T04:18:50.344Z,72.20
2018-05-21T04:21:18.669Z,71.50
2018-05-21T04:23:46.966Z,72.70
2018-05-21T04:26:15.253Z,73.30
2018-05-21T04:28:43.843Z,73.30
2018-05-21T04:31:12.137Z,73.30
2018-05-21T04:33:41.949Z,74.00
2018-05-21T04:36:10.439Z,74.70
2018-05-21T04:38:38.837Z,72.80
2018-05-21T04:41:07.157Z,72.70
2018-05-21T04:43:36.245Z,72.30
2018-05-21T04:46:04.556Z,72.30
2018-05-21T04:48:33.621Z,71.30
2018-05-21T04:51:01.920Z,71.30
2018-05-21T04:53:30.254Z,70.90
2018-05-21T04:55:58.546Z,70.50
2018-05-21T04:58:26.893Z,70.40
2018-05-21T05:00:55.297Z,70.20
2018-05-21T05:03:25.092Z,70.50
2018-05-21T05:05:53.405Z,70.40
2018-05-21T05:08:21.698Z,70.50
2018-05-21T05:10:50.086Z,71.10
2018-05-21T05:13:18.404Z,72.00
2018-05-21T05:15:47.473Z,72.40
2018-05-21T05:18:15.873Z,72.40
2018-05-21T05:20:45.698Z,70.80
2018-05-21T05:23:14.021Z,70.90
2018-05-21T05:25:42.381Z,71.10
2018-05-21T05:28:10.660Z,71.20
2018-05-21T05:30:38.940Z,70.20
2018-05-21T05:33:07.270Z,70.20
2018-05-21T05:35:36.322Z,70.90
2018-05-21T05:38:04.604Z,70.80
2018-05-21T05:40:32.925Z,71.10
2018-05-21T05:43:01.312Z,70.80
2018-05-21T05:45:29.646Z,70.00
2018-05-21T05:47:57.938Z,69.40
2018-05-21T05:50:26.229Z,70.30
2018-05-21T05:52:54.560Z,69.90
2018-05-21T05:55:22.845Z,69.70
2018-05-21T05:57:51.569Z,69.40
2018-05-21T06:00:19.961Z,67.90
2018-05-21T06:02:48.244Z,68.00
2018-05-21T06:05:16.569Z,68.10
2018-05-21T06:07:45.621Z,67.40
2018-05-21T06:10:13.933Z,67.40
2018-05-21T06:12:42.261Z,66.60
2018-05-21T06:15:10.555Z,67.40
2018-05-21T06:17:38.877Z,67.50
2018-05-21T06:20:07.162Z,67.60
2018-05-21T06:22:35.481Z,67.50
2018-05-21T06:25:03.773Z,67.60
2018-05-21T06:27:32.260Z,67.30
2018-05-21T06:30:00.541Z,65.90
2018-05-21T06:32:28.845Z,66.80
2018-05-21T06:34:57.169Z,66.20
2018-05-21T06:37:26.229Z,67.00
2018-05-21T06:39:54.565Z,67.00
2018-05-21T06:42:23.619Z,65.30
2018-05-21T06:44:51.911Z,65.30
2018-05-21T06:47:20.220Z,66.30
2018-05-21T06:49:48.509Z,65.10
2018-05-21T06:52:16.825Z,64.60
2018-05-21T06:54:45.186Z,65.00
2018-05-21T06:57:13.569Z,65.60
2018-05-21T06:59:42.230Z,64.10
2018-05-21T07:02:10.472Z,65.20
2018-05-21T07:04:38.765Z,63.80
2018-05-21T07:07:07.086Z,63.20
2018-05-21T07:09:35.430Z,62.40
2018-05-21T07:12:03.751Z,61.70
2018-05-21T07:14:32.800Z,62.00
2018-05-21T07:17:01.334Z,62.00
2018-05-21T07:19:29.621Z,60.80
2018-05-21T07:21:57.914Z,62.00
2018-05-21T07:24:26.232Z,60.70
2018-05-21T07:26:54.535Z,61.10
2018-05-21T07:29:22.869Z,61.30
2018-05-21T07:31:51.204Z,62.10
2018-05-21T07:34:19.497Z,61.90
2018-05-21T07:36:47.785Z,61.30
2018-05-21T07:39:16.098Z,60.40
2018-05-21T07:41:44.389Z,59.00
2018-05-21T07:44:12.919Z,58.60
2018-05-21T07:46:41.197Z,58.10
2018-05-21T07:49:09.477Z,57.90
2018-05-21T07:51:37.851Z,59.60
2018-05-21T07:54:06.104Z,58.40
2018-05-21T07:56:34.777Z,58.30
2018-05-21T07:59:03.077Z,57.50
2018-05-21T08:01:32.161Z,56.60
2018-05-21T08:04:01.995Z,57.60
2018-05-21T08:06:30.282Z,57.50
2018-05-21T08:08:58.605Z,58.10
2018-05-21T08:11:27.664Z,56.20
2018-05-21T08:13:55.982Z,56.20
2018-05-21T08:16:24.360Z,56.50
2018-05-21T08:18:53.048Z,57.60
2018-05-21T08:21:21.334Z,56.50
2018-05-21T08:23:49.637Z,54.60
2018-05-21T08:26:17.958Z,55.40
2018-05-21T08:28:47.010Z,54.90
2018-05-21T08:31:15.420Z,54.80
2018-05-21T08:33:43.707Z,54.80
2018-05-21T08:36:12.024Z,54.80
2018-05-21T08:38:41.091Z,54.60
2018-05-21T08:41:09.365Z,54.70
2018-05-21T08:43:37.686Z,54.50
2018-05-21T08:46:05.971Z,54.70
2018-05-21T08:48:35.149Z,55.90
2018-05-21T08:51:04.498Z,54.90
2018-05-21T08:53:34.287Z,54.30
2018-05-21T08:56:02.578Z,54.20
2018-05-21T08:58:31.196Z,53.10
2018-05-21T09:00:59.484Z,53.60
2018-05-21T09:03:27.759Z,53.50
2018-05-21T09:06:00.668Z,57.10
2018-05-21T09:08:28.949Z,55.40
2018-05-21T09:10:57.270Z,53.50
2018-05-21T09:13:25.550Z,51.70
2018-05-21T09:15:54.053Z,53.30
2018-05-21T09:18:22.412Z,53.20
2018-05-21T09:20:50.697Z,54.30
2018-05-21T09:23:19.016Z,54.50
2018-05-21T09:25:47.411Z,51.10
2018-05-21T09:28:15.798Z,49.80
2018-05-21T09:30:44.076Z,51.30
2018-05-21T09:33:12.389Z,52.70
2018-05-21T09:35:40.714Z,50.40
2018-05-21T09:38:08.995Z,50.40
2018-05-21T09:40:37.922Z,50.20
2018-05-21T09:43:06.573Z,49.70
2018-05-21T09:45:35.665Z,50.00
2018-05-21T09:48:04.005Z,50.00
2018-05-21T09:50:32.259Z,50.60
2018-05-21T09:53:01.644Z,48.40
2018-05-21T09:55:29.925Z,48.30
2018-05-21T09:57:58.214Z,48.80
2018-05-21T10:00:26.529Z,46.30
2018-05-21T10:02:54.825Z,47.80
2018-05-21T10:07:57.733Z,47.60
2018-05-21T10:10:26.056Z,46.40
2018-05-21T10:12:55.109Z,43.40
2018-05-21T10:15:23.393Z,43.40
2018-05-21T10:17:51.918Z,43.60
2018-05-21T10:20:20.212Z,43.00
2018-05-21T10:22:49.268Z,42.20
2018-05-21T10:25:17.593Z,42.20
2018-05-21T10:27:45.882Z,40.00
2018-05-21T10:30:14.375Z,42.40
2018-05-21T10:32:43.469Z,40.10
2018-05-21T10:35:11.761Z,40.10
2018-05-21T10:37:40.086Z,39.50
2018-05-21T10:40:09.885Z,39.80
2018-05-21T10:42:38.601Z,39.90
2018-05-21T10:45:06.898Z,39.40
2018-05-21T10:47:35.277Z,41.10
2018-05-21T10:50:03.979Z,41.70
2018-05-21T10:52:32.267Z,40.20
2018-05-21T10:55:00.546Z,40.80
2018-05-21T10:57:28.917Z,40.90
2018-05-21T10:59:57.233Z,41.70
2018-05-21T11:02:25.557Z,42.20
2018-05-21T11:04:54.604Z,41.30
2018-05-21T11:07:22.945Z,41.30
2018-05-21T11:09:52.010Z,41.70
2018-05-21T11:12:20.297Z,41.60
2018-05-21T11:14:48.623Z,39.20
2018-05-21T11:17:16.910Z,40.10
2018-05-21T11:19:45.241Z,40.40
2018-05-21T11:22:13.529Z,40.20
2018-05-21T11:24:41.909Z,41.40
2018-05-21T11:27:10.972Z,40.90
2018-05-21T11:29:39.312Z,40.90
2018-05-21T11:32:07.610Z,41.30
2018-05-21T11:34:35.941Z,41.60
2018-05-21T11:37:05.869Z,41.50
2018-05-21T11:39:34.862Z,41.40
2018-05-21T11:42:03.147Z,39.20
2018-05-21T11:44:31.439Z,39.10
2018-05-21T11:46:59.841Z,38.20
2018-05-21T11:49:28.125Z,38.60
2018-05-21T11:51:56.417Z,39.10
2018-05-21T11:54:24.748Z,38.90
2018-05-21T11:56:53.819Z,40.90
2018-05-21T11:59:22.214Z,40.80
2018-05-21T12:01:50.537Z,39.70
2018-05-21T12:04:19.628Z,38.30
2018-05-21T12:06:47.921Z,38.20
2018-05-21T12:09:17.105Z,37.00
2018-05-21T12:11:45.445Z,37.00
2018-05-21T12:14:13.775Z,37.00
2018-05-21T12:16:42.113Z,37.60
2018-05-21T12:19:11.171Z,36.80
2018-05-21T12:21:39.459Z,36.80
2018-05-21T12:24:07.797Z,37.40
2018-05-21T12:26:36.110Z,36.70
2018-05-21T12:29:04.392Z,37.80
2018-05-21T12:31:32.822Z,37.60
2018-05-21T12:34:01.111Z,36.70
2018-05-21T12:36:29.446Z,37.40
2018-05-21T12:38:58.502Z,36.80
2018-05-21T12:41:26.820Z,36.90
2018-05-21T12:43:55.163Z,38.30
2018-05-21T12:46:24.314Z,36.70
2018-05-21T12:48:52.645Z,36.70
2018-05-21T12:51:20.932Z,37.70
2018-05-21T12:53:49.285Z,36.60
2018-05-21T12:56:17.614Z,37.50
2018-05-21T12:58:45.896Z,36.40
2018-05-21T13:01:14.189Z,38.30
2018-05-21T13:03:42.518Z,38.50
2018-05-21T13:06:11.243Z,37.30
2018-05-21T13:08:39.630Z,37.90
2018-05-21T13:11:08.109Z,35.90
2018-05-21T13:13:36.722Z,36.60
2018-05-21T13:16:05.009Z,37.00
2018-05-21T13:18:33.297Z,37.20
2018-05-21T13:21:01.623Z,35.50
2018-05-21T13:23:30.040Z,36.90
2018-05-21T13:25:58.257Z,37.00
2018-05-21T13:28:26.582Z,37.60
2018-05-21T13:30:55.702Z,37.00
2018-05-21T13:33:24.766Z,38.50
2018-05-21T13:35:53.050Z,38.50
2018-05-21T13:38:21.413Z,36.60
2018-05-21T13:40:49.703Z,35.90
2018-05-21T13:43:18.012Z,36.00
2018-05-21T13:45:46.329Z,36.30
2018-05-21T13:48:14.661Z,33.90
2018-05-21T13:50:42.954Z,35.10
2018-05-21T13:53:11.293Z,35.00
2018-05-21T13:55:39.625Z,36.00
2018-05-21T13:58:07.962Z,35.30
2018-05-21T14:00:36.365Z,35.50
2018-05-21T14:03:04.650Z,36.30
2018-05-21T14:05:32.981Z,35.70
2018-05-21T14:08:02.080Z,36.10
2018-05-21T14:10:31.146Z,36.40
2018-05-21T14:12:59.467Z,36.40
2018-05-21T14:15:27.806Z,34.40
2018-05-21T14:17:56.234Z,35.40
2018-05-21T14:20:24.521Z,35.10
2018-05-21T14:22:52.866Z,34.10
2018-05-21T14:25:21.571Z,34.20
2018-05-21T14:27:49.818Z,35.30
2018-05-21T14:30:18.124Z,35.40
2018-05-21T14:32:47.297Z,33.90
2018-05-21T14:35:15.579Z,33.80
2018-05-21T14:37:43.918Z,35.60
2018-05-21T14:40:12.210Z,35.40
2018-05-21T14:42:40.863Z,34.60
2018-05-21T14:45:09.150Z,34.70
2018-05-21T14:47:37.545Z,35.00
2018-05-21T14:50:06.038Z,35.60
2018-05-21T14:52:34.314Z,35.30
2018-05-21T14:55:02.616Z,36.30
2018-05-21T14:57:32.465Z,33.80
2018-05-21T15:00:00.761Z,34.50
2018-05-21T15:02:29.854Z,34.20
2018-05-21T15:04:58.142Z,34.20
2018-05-21T15:07:26.459Z,36.20
2018-05-21T15:09:54.752Z,36.30
2018-05-21T15:12:23.098Z,35.60
2018-05-21T15:14:51.385Z,30.80
2018-05-21T15:17:19.674Z,28.40
2018-05-21T15:19:48.006Z,28.40
2018-05-21T15:22:16.346Z,28.30
2018-05-21T15:24:44.640Z,26.90
2018-05-21T15:27:12.971Z,25.00
2018-05-21T15:29:42.044Z,23.60
2018-05-21T15:32:10.374Z,23.60
2018-05-21T15:34:38.980Z,24.70
2018-05-21T15:37:07.270Z,27.30
2018-05-21T15:39:35.563Z,26.90
2018-05-21T15:42:03.886Z,27.90
2018-05-21T15:44:32.221Z,27.60
2018-05-21T15:47:01.269Z,24.80
2018-05-21T15:49:29.597Z,24.80
2018-05-21T15:51:57.924Z,24.70
2018-05-21T15:54:26.217Z,24.50
2018-05-21T15:56:54.546Z,24.80
2018-05-21T15:59:22.834Z,23.80
2018-05-21T16:01:51.121Z,24.20
2018-05-21T16:04:19.489Z,25.50
2018-05-21T16:06:47.777Z,26.70
2018-05-21T16:09:16.102Z,27.00
2018-05-21T16:11:44.414Z,26.60
2018-05-21T16:14:13.504Z,26.40
2018-05-21T16:16:41.790Z,26.30
2018-05-21T16:19:10.139Z,28.20
2018-05-21T16:21:38.425Z,30.80
2018-05-21T16:24:06.705Z,31.80
2018-05-21T16:26:35.038Z,30.90
2018-05-21T16:29:03.433Z,28.70
2018-05-21T16:31:31.761Z,28.90
2018-05-21T16:34:00.857Z,27.60
2018-05-21T16:36:30.156Z,28.00
2018-05-21T16:38:58.433Z,28.10
2018-05-21T16:41:26.844Z,28.70
2018-05-21T16:43:55.221Z,28.20
2018-05-21T16:46:23.549Z,29.00
2018-05-21T16:48:51.988Z,28.70
2018-05-21T16:51:20.292Z,29.20
2018-05-21T16:53:48.591Z,30.00
2018-05-21T16:56:16.930Z,31.40
2018-05-21T16:58:45.326Z,32.90
2018-05-21T17:01:13.652Z,33.90
2018-05-21T17:03:42.040Z,35.90
2018-05-21T17:06:10.329Z,34.40
2018-05-21T17:08:38.641Z,34.60
2018-05-21T17:11:07.775Z,34.90
2018-05-21T17:13:36.230Z,34.90
2018-05-21T17:16:04.564Z,35.10
2018-05-21T17:18:32.885Z,35.60
2018-05-21T17:21:01.219Z,35.70
2018-05-21T17:23:30.274Z,37.10
2018-05-21T17:25:58.630Z,37.10
2018-05-21T17:28:26.924Z,36.90
2018-05-21T17:30:55.213Z,36.70
2018-05-21T17:33:23.538Z,37.60
2018-05-21T17:35:51.862Z,37.60
2018-05-21T17:38:20.244Z,37.20
2018-05-21T17:40:48.729Z,37.50
2018-05-21T17:43:17.013Z,37.80
2018-05-21T17:45:45.308Z,37.80
2018-05-21T17:48:13.644Z,38.90
2018-05-21T17:50:42.311Z,38.80
2018-05-21T17:53:10.607Z,38.40
2018-05-21T17:55:39.665Z,38.50
2018-05-21T17:58:07.977Z,37.90
2018-05-21T18:00:36.425Z,37.30
2018-05-21T18:03:04.807Z,38.00
2018-05-21T18:05:33.853Z,39.80
2018-05-21T18:08:02.325Z,39.70
2018-05-21T18:10:30.677Z,39.30
2018-05-21T18:12:59.738Z,41.00
2018-05-21T18:15:28.271Z,40.60
2018-05-21T18:17:56.598Z,40.40
2018-05-21T18:20:24.891Z,40.80
2018-05-21T18:22:53.239Z,41.10
2018-05-21T18:25:21.520Z,42.10
2018-05-21T18:27:49.825Z,41.60
2018-05-21T18:30:18.318Z,42.60
2018-05-21T18:32:46.548Z,42.40
2018-05-21T18:35:14.877Z,43.30
2018-05-21T18:37:43.217Z,43.00
2018-05-21T18:40:11.516Z,44.00
2018-05-21T18:42:39.856Z,43.90
2018-05-21T18:45:08.332Z,44.40
2018-05-21T18:47:36.741Z,44.80
2018-05-21T18:50:05.206Z,45.00
2018-05-21T18:52:33.481Z,46.20
2018-05-21T18:55:01.811Z,45.00
2018-05-21T18:57:31.645Z,45.50
2018-05-21T19:00:00.023Z,45.50
2018-05-21T19:02:28.413Z,45.90
2018-05-21T19:04:56.744Z,46.30
2018-05-21T19:07:25.065Z,47.00
2018-05-21T19:09:53.693Z,47.10
2018-05-21T19:12:23.484Z,47.60
2018-05-21T19:14:51.765Z,47.60
2018-05-21T19:17:20.083Z,48.50
2018-05-21T19:19:48.518Z,49.00
2018-05-21T19:22:17.901Z,50.10
2018-05-21T19:24:46.206Z,49.90
2018-05-21T19:27:14.494Z,49.90
2018-05-21T19:29:42.817Z,49.70
2018-05-21T19:32:11.103Z,49.60
2018-05-21T19:34:39.721Z,49.90
2018-05-21T19:37:08.009Z,50.60
2018-05-21T19:39:36.280Z,51.00
2018-05-21T19:42:04.902Z,51.10
2018-05-21T19:44:33.181Z,51.20
2018-05-21T19:47:01.473Z,51.50
2018-05-21T19:49:29.799Z,51.60
2018-05-21T19:51:58.117Z,51.90
2018-05-21T19:54:27.170Z,52.80
2018-05-21T19:56:55.447Z,52.90
2018-05-21T19:59:23.778Z,53.70
2018-05-21T20:01:52.069Z,53.80
2018-05-21T20:04:20.358Z,54.20
2018-05-21T20:06:48.683Z,54.90
2018-05-21T20:09:16.967Z,55.50
2018-05-21T20:11:45.251Z,55.50
2018-05-21T20:14:14.332Z,56.30
2018-05-21T20:16:42.676Z,56.30
2018-05-21T20:19:11.114Z,56.80
2018-05-21T20:21:40.249Z,56.40
2018-05-21T20:24:09.349Z,57.00
2018-05-21T20:26:38.419Z,57.00
2018-05-21T20:29:06.758Z,57.00
2018-05-21T20:31:35.841Z,58.20
2018-05-21T20:34:04.399Z,58.30
2018-05-21T20:36:32.684Z,58.80
2018-05-21T20:39:01.004Z,58.80
2018-05-21T20:41:30.842Z,59.80
2018-05-21T20:43:59.889Z,60.10
2018-05-21T20:46:28.220Z,60.10
2018-05-21T20:48:56.504Z,60.10
2018-05-21T20:51:24.805Z,60.40
2018-05-21T20:53:53.288Z,60.20
2018-05-21T20:56:21.700Z,60.60
2018-05-21T20:58:50.062Z,60.80
2018-05-21T21:01:18.406Z,60.90
2018-05-21T21:03:47.462Z,61.50
2018-05-21T21:06:15.750Z,61.50
2018-05-21T21:08:44.077Z,61.90
2018-05-21T21:11:13.172Z,61.80
2018-05-21T21:13:41.453Z,61.70
2018-05-21T21:16:09.808Z,61.20
2018-05-21T21:18:38.129Z,62.30
2018-05-21T21:21:06.485Z,62.80
2018-05-21T21:23:34.813Z,63.10
2018-05-21T21:26:03.146Z,63.60
2018-05-21T21:28:31.428Z,64.70
2018-05-21T21:31:00.534Z,64.50
2018-05-21T21:33:29.609Z,63.50
2018-05-21T21:35:57.897Z,63.50
2018-05-21T21:38:26.249Z,63.50
2018-05-21T21:40:54.553Z,64.90
2018-05-21T21:43:22.875Z,66.30
2018-05-21T21:45:51.205Z,66.30
2018-05-21T21:48:19.498Z,66.30
2018-05-21T21:50:47.826Z,66.50
2018-05-21T21:53:16.141Z,66.30
2018-05-21T21:55:44.443Z,66.70
2018-05-21T21:58:13.703Z,67.10
2018-05-21T22:00:42.016Z,67.00
2018-05-21T22:03:10.393Z,67.00
2018-05-21T22:05:38.720Z,67.40
2018-05-21T22:08:08.522Z,67.50
2018-05-21T22:10:36.867Z,67.50
2018-05-21T22:13:05.402Z,67.40
2018-05-21T22:15:33.783Z,67.90
2018-05-21T22:18:02.111Z,67.60
2018-05-21T22:20:31.159Z,69.30
2018-05-21T22:22:59.448Z,69.00
2018-05-21T22:25:27.769Z,68.30
2018-05-21T22:27:56.164Z,67.70
2018-05-21T22:30:24.498Z,67.20
2018-05-21T22:32:52.835Z,67.80
2018-05-21T22:35:21.180Z,67.10
2018-05-21T22:37:49.529Z,67.60
2018-05-21T22:40:17.821Z,67.70
2018-05-21T22:42:46.114Z,68.30
2018-05-21T22:45:14.497Z,70.00
2018-05-21T22:47:42.786Z,70.90
2018-05-21T22:50:11.126Z,71.20
2018-05-21T22:52:39.413Z,72.00
2018-05-21T22:55:07.793Z,72.10
2018-05-21T22:57:36.121Z,72.40
2018-05-21T23:00:04.408Z,73.20
2018-05-21T23:02:32.509Z,73.30
2018-05-21T23:05:00.858Z,73.10
2018-05-21T23:07:29.151Z,73.70
2018-05-21T23:09:57.688Z,73.90
2018-05-21T23:12:25.987Z,74.10
2018-05-21T23:14:54.267Z,74.00
2018-05-21T23:17:22.669Z,74.00
2018-05-21T23:19:51.005Z,73.70
2018-05-21T23:22:19.290Z,74.40
2018-05-21T23:24:47.625Z,75.30
2018-05-21T23:27:15.909Z,75.10
2018-05-21T23:29:44.212Z,75.90
2018-05-21T23:32:12.541Z,76.70
2018-05-21T23:34:40.835Z,76.40
2018-05-21T23:37:09.179Z,77.00
2018-05-21T23:39:37.478Z,77.60
2018-05-21T23:42:05.811Z,77.40
2018-05-21T23:44:34.353Z,77.40
2018-05-21T23:47:02.646Z,77.30
2018-05-21T23:49:31.872Z,77.80
2018-05-21T23:52:00.989Z,78.60
2018-05-21T23:54:30.045Z,78.40
2018-05-21T23:56:58.334Z,78.40
2018-05-21T23:59:26.670Z,78.30
